.
WxDataArchive / Data Records for 2013-09-04
2013-09-03 September 2013 2013-09-05

Data Records for Wednesday, 04 September 2013

Time	Temp	Chill	HIndex	Humid	Dewpt	 Wind 	HiWind	WindDir	Rain 	Barom 
-----	----	-----	------	-----	-----	------	------	-------	-----	----- 
00:00	62.6	62.6	62.6	77	55.3	0	0	---	0.00	30.026 
00:05	62.4	62.4	62.4	77	55.1	0	0	---	0.00	30.026 
00:10	62.1	62.1	62.1	78	55.2	0	0	---	0.00	30.026 
00:15	61.8	61.8	61.8	78	54.9	0	0	---	0.00	30.024 
00:20	61.5	61.5	61.5	79	54.9	0	0	---	0.00	30.024 
00:25	61.2	61.2	61.2	79	54.6	0	0	---	0.00	30.024 
00:30	60.9	60.9	60.9	81	55.0	0	0	---	0.00	30.029 
00:35	60.5	60.5	60.5	81	54.6	0	0	---	0.00	30.029 
00:40	60.2	60.2	60.2	81	54.3	0	0	---	0.00	30.029 
00:45	59.9	59.9	59.9	82	54.4	0	0	---	0.00	30.035 
00:50	59.6	59.6	59.6	82	54.1	0	0	---	0.00	30.035 
00:55	59.5	59.5	59.5	83	54.3	0	0	---	0.00	30.035 
01:00	59.3	59.3	59.3	84	54.5	0	0	---	0.00	30.041 
01:05	59.0	59.0	59.0	85	54.5	0	0	---	0.00	30.041 
01:10	58.7	58.7	58.7	85	54.2	0	0	---	0.00	30.041 
01:15	58.6	58.6	58.6	86	54.4	0	0	---	0.00	30.041 
01:20	58.3	58.3	58.3	86	54.1	0	0	---	0.00	30.041 
01:25	58.1	58.1	58.1	87	54.2	0	0	---	0.00	30.041 
01:30	57.8	57.8	57.8	87	54.0	0	0	---	0.00	30.043 
01:35	57.6	57.6	57.6	87	53.8	0	0	---	0.00	30.043 
01:40	57.6	57.6	57.6	88	54.1	0	0	---	0.00	30.043 
01:45	57.5	57.5	57.5	88	54.0	0	0	---	0.00	30.044 
01:50	57.5	57.5	57.5	88	54.0	0	0	---	0.00	30.044 
01:55	57.5	57.5	57.5	88	54.0	0	0	---	0.00	30.044 
02:00	57.3	57.3	57.3	88	53.8	0	0	---	0.00	30.043 
02:05	57.2	57.2	57.2	89	54.0	0	0	---	0.00	30.043 
02:10	57.2	57.2	57.2	89	54.0	0	0	---	0.00	30.043 
02:15	57.0	57.0	57.0	89	53.8	0	0	---	0.00	30.042 
02:20	57.0	57.0	57.0	89	53.8	0	0	---	0.00	30.042 
02:25	56.9	56.9	56.9	89	53.7	0	0	---	0.00	30.042 
02:30	56.6	56.6	56.6	89	53.4	0	0	---	0.00	30.041 
02:35	56.5	56.5	56.5	89	53.3	0	0	---	0.00	30.041 
02:40	56.5	56.5	56.5	90	53.6	0	0	---	0.00	30.041 
02:45	56.3	56.3	56.3	90	53.4	0	0	---	0.00	30.041 
02:50	56.2	56.2	56.2	90	53.3	0	0	---	0.00	30.041 
02:55	55.9	55.9	55.9	90	53.0	0	0	---	0.00	30.041 
03:00	55.7	55.7	55.7	90	52.8	0	0	---	0.00	30.042 
03:05	55.6	55.6	55.6	91	53.0	0	0	---	0.00	30.042 
03:10	55.4	55.4	55.4	91	52.8	0	0	---	0.00	30.042 
03:15	55.3	55.3	55.3	91	52.7	0	0	---	0.00	30.044 
03:20	55.3	55.3	55.3	91	52.7	0	0	---	0.00	30.044 
03:25	55.1	55.1	55.1	91	52.5	0	0	---	0.00	30.044 
03:30	55.0	55.0	55.0	91	52.4	0	0	---	0.00	30.050 
03:35	54.8	54.8	54.8	92	52.5	0	0	---	0.00	30.050 
03:40	54.8	54.8	54.8	92	52.5	0	0	---	0.00	30.050 
03:45	54.7	54.7	54.7	92	52.4	0	0	---	0.00	30.054 
03:50	54.7	54.7	54.7	92	52.4	0	0	---	0.00	30.054 
03:55	54.5	54.5	54.5	92	52.2	0	0	---	0.00	30.054 
04:00	54.5	54.5	54.5	92	52.2	0	0	---	0.00	30.058 
04:05	54.5	54.5	54.5	92	52.2	0	0	---	0.00	30.058 
04:10	54.5	54.5	54.5	92	52.2	0	0	---	0.00	30.058 
04:15	54.4	54.4	54.4	92	52.1	0	0	---	0.00	30.062 
04:20	54.2	54.2	54.2	92	51.9	0	0	---	0.00	30.062 
04:25	54.2	54.2	54.2	92	51.9	0	0	---	0.00	30.062 
04:30	54.1	54.1	54.1	93	52.1	0	0	---	0.00	30.064 
04:35	54.1	54.1	54.1	93	52.1	0	0	---	0.00	30.064 
04:40	54.1	54.1	54.1	93	52.1	0	0	---	0.00	30.064 
04:45	54.1	54.1	54.1	93	52.1	0	0	---	0.00	30.062 
04:50	53.9	53.9	53.9	93	51.9	0	0	---	0.00	30.062 
04:55	53.9	53.9	53.9	93	51.9	0	0	---	0.00	30.062 
05:00	53.9	53.9	53.9	93	51.9	0	0	---	0.00	30.066 
05:05	53.8	53.8	53.8	93	51.8	0	0	---	0.00	30.066 
05:10	53.8	53.8	53.8	93	51.8	0	0	---	0.00	30.066 
05:15	53.8	53.8	53.8	93	51.8	0	0	---	0.00	30.059 
05:20	53.6	53.6	53.6	93	51.6	0	0	---	0.00	30.059 
05:25	53.5	53.5	53.5	93	51.5	0	0	---	0.00	30.059 
05:30	53.3	53.3	53.3	93	51.3	0	0	---	0.00	30.061 
05:35	53.3	53.3	53.3	93	51.3	0	0	---	0.00	30.061 
05:40	53.3	53.3	53.3	93	51.3	0	0	---	0.00	30.061 
05:45	53.2	53.2	53.2	93	51.2	0	0	---	0.00	30.059 
05:50	53.2	53.2	53.2	94	51.5	0	0	---	0.00	30.059 
05:55	53.2	53.2	53.2	94	51.5	0	0	---	0.00	30.059 
06:00	53.1	53.1	53.1	94	51.4	0	0	---	0.00	30.060 
06:05	52.9	52.9	52.9	94	51.2	0	0	---	0.00	30.060 
06:10	52.9	52.9	52.9	94	51.2	0	0	---	0.00	30.060 
06:15	52.8	52.8	52.8	94	51.1	0	0	---	0.00	30.069 
06:20	52.6	52.6	52.6	94	50.9	0	0	---	0.00	30.069 
06:25	52.6	52.6	52.6	94	50.9	0	0	---	0.00	30.069 
06:30	52.6	52.6	52.6	94	50.9	0	0	---	0.00	30.074 
06:35	52.6	52.6	52.6	94	50.9	0	0	---	0.00	30.074 
06:40	52.5	52.5	52.5	94	50.8	0	0	---	0.00	30.074 
06:45	52.5	52.5	52.5	94	50.8	0	0	---	0.00	30.076 
06:50	52.5	52.5	52.5	94	50.8	0	0	---	0.00	30.076 
06:55	52.5	52.5	52.5	94	50.8	0	0	---	0.00	30.076 
07:00	52.5	52.5	52.5	94	50.8	0	0	---	0.00	30.079 
07:05	52.5	52.5	52.5	94	50.8	0	0	---	0.00	30.079 
07:10	52.3	52.3	52.3	94	50.6	0	0	---	0.00	30.079 
07:15	52.3	52.3	52.3	94	50.6	0	0	---	0.00	30.090 
07:20	52.3	52.3	52.3	94	50.6	0	0	---	0.00	30.090 
07:25	52.5	52.5	52.5	94	50.8	0	0	---	0.00	30.090 
07:30	52.5	52.5	52.5	95	51.1	0	0	---	0.00	30.093 
07:35	52.6	52.6	52.6	95	51.2	0	0	---	0.00	30.093 
07:40	52.9	52.9	52.9	95	51.5	0	0	---	0.00	30.093 
07:45	53.5	53.5	53.5	95	52.1	0	0	---	0.00	30.095 
07:50	54.1	54.1	54.1	95	52.7	0	0	---	0.00	30.095 
07:55	54.7	54.7	54.7	95	53.3	0	0	---	0.00	30.095 
08:00	55.1	55.1	55.1	95	53.7	0	0	---	0.00	30.093 
08:05	55.6	55.6	55.6	95	54.2	0	0	---	0.00	30.093 
08:10	56.0	56.0	56.0	95	54.6	0	0	---	0.00	30.093 
08:15	56.3	56.3	56.3	95	54.9	0	0	---	0.00	30.096 
08:20	56.7	56.7	56.7	95	55.3	0	0	---	0.00	30.096 
08:25	57.0	57.0	57.0	95	55.6	0	0	---	0.00	30.096 
08:30	57.3	57.3	57.3	95	55.9	0	0	---	0.00	30.094 
08:35	57.8	57.8	57.8	95	56.4	0	0	---	0.00	30.094 
08:40	58.3	58.3	58.3	95	56.9	0	0	---	0.00	30.094 
08:45	58.7	58.7	58.7	94	57.0	0	0	---	0.00	30.095 
08:50	59.0	59.0	59.0	94	57.3	0	0	---	0.00	30.095 
08:55	59.5	59.5	59.5	93	57.5	0	0	---	0.00	30.095 
09:00	59.9	59.9	59.9	93	57.9	0	1	270	0.00	30.095 
09:05	60.4	60.4	60.4	92	58.1	0	1	270	0.00	30.095 
09:10	61.0	61.0	61.0	91	58.4	0	1	270	0.00	30.095 
09:15	61.6	61.6	61.6	88	58.0	0	2	270	0.00	30.097 
09:20	62.4	62.4	62.4	85	57.8	0	1	270	0.00	30.097 
09:25	62.9	62.9	62.9	83	57.7	0	1	270	0.00	30.097 
09:30	63.7	63.7	63.7	81	57.8	0	1	270	0.00	30.099 
09:35	64.2	64.2	64.2	80	57.9	0	1	270	0.00	30.099 
09:40	64.7	64.7	64.7	79	58.0	0	0	---	0.00	30.099 
09:45	65.2	65.2	65.2	76	57.4	0	1	270	0.00	30.098 
09:50	65.8	65.8	65.8	75	57.6	0	1	270	0.00	30.098 
09:55	66.4	66.4	66.4	75	58.2	0	1	270	0.00	30.098 
10:00	66.9	66.9	66.9	72	57.6	0	2	270	0.00	30.099 
10:05	67.6	67.6	67.6	70	57.5	0	2	270	0.00	30.099 
10:10	68.3	68.3	68.3	69	57.7	0	2	270	0.00	30.099 
10:15	68.9	68.9	68.9	67	57.5	1	3	270	0.00	30.101 
10:20	69.4	69.4	69.4	65	57.1	1	2	270	0.00	30.101 
10:25	69.9	69.9	69.9	64	57.2	1	3	270	0.00	30.101 
10:30	70.4	70.4	70.4	62	56.7	1	3	270	0.00	30.099 
10:35	70.6	70.6	70.6	60	56.0	1	4	270	0.00	30.099 
10:40	70.9	70.9	70.9	61	56.8	1	4	270	0.00	30.099 
10:45	71.1	71.1	71.1	59	56.0	2	4	270	0.00	30.099 
10:50	71.3	71.3	71.3	57	55.3	2	4	270	0.00	30.099 
10:55	71.6	71.6	71.6	57	55.5	2	4	270	0.00	30.099 
11:00	72.0	72.0	72.0	56	55.4	2	4	270	0.00	30.094 
11:05	72.3	72.3	72.3	56	55.7	2	5	315	0.00	30.094 
11:10	72.8	72.8	72.8	54	55.2	2	4	315	0.00	30.094 
11:15	73.2	73.2	73.2	53	55.0	1	3	315	0.00	30.092 
11:20	73.5	73.5	73.5	53	55.3	1	3	292	0.00	30.092 
11:25	73.7	73.7	73.7	53	55.5	1	4	292	0.00	30.092 
11:30	74.0	74.0	74.0	53	55.8	1	2	292	0.00	30.094 
11:35	74.2	74.2	74.2	52	55.4	2	4	292	0.00	30.094 
11:40	74.2	74.2	74.2	50	54.3	2	5	292	0.00	30.094 
11:45	74.0	74.0	74.0	50	54.2	2	4	292	0.00	30.100 
11:50	74.4	74.4	74.4	53	56.1	1	4	292	0.00	30.100 
11:55	74.7	74.7	74.7	50	54.8	1	4	292	0.00	30.100 
12:00	75.1	75.1	77.7	49	54.6	1	3	292	0.00	30.098 
12:05	75.4	75.4	77.8	49	54.9	1	3	292	0.00	30.098 
12:10	75.6	75.6	77.9	49	55.1	2	4	292	0.00	30.098 
12:15	75.3	75.3	77.7	49	54.8	2	4	292	0.00	30.098 
12:20	75.6	75.6	77.9	48	54.5	2	5	292	0.00	30.098 
12:25	76.1	76.1	78.0	46	53.8	1	4	292	0.00	30.098 
12:30	76.5	76.5	78.3	47	54.7	2	4	292	0.00	30.088 
12:35	76.7	76.7	78.4	48	55.5	1	3	292	0.00	30.088 
12:40	77.0	77.0	78.4	45	54.0	1	4	292	0.00	30.088 
12:45	77.4	77.4	78.7	46	55.0	1	4	292	0.00	30.087 
12:50	77.4	77.4	78.6	45	54.4	1	3	292	0.00	30.087 
12:55	77.4	77.4	78.6	45	54.4	2	4	292	0.00	30.087 
13:00	77.7	77.7	78.8	44	54.0	1	3	292	0.00	30.085 
13:05	77.9	77.9	78.8	43	53.6	1	4	292	0.00	30.085 
13:10	77.7	77.7	78.7	43	53.4	2	5	292	0.00	30.085 
13:15	78.1	78.1	78.9	43	53.8	1	4	292	0.00	30.086 
13:20	78.6	78.6	79.2	42	53.6	1	2	292	0.00	30.086 
13:25	79.2	79.2	79.5	42	54.1	1	4	292	0.00	30.086 
13:30	79.0	79.0	79.4	42	53.9	2	3	292	0.00	30.083 
13:35	78.8	78.8	79.2	40	52.4	2	6	270	0.00	30.083 
13:40	79.0	79.0	79.4	41	53.3	1	4	270	0.00	30.083 
13:45	79.4	79.4	79.7	42	54.3	1	3	270	0.00	30.085 
13:50	79.8	79.8	79.8	40	53.3	1	5	270	0.00	30.085 
13:55	79.6	79.6	79.7	41	53.8	2	5	270	0.00	30.085 
14:00	79.4	79.4	79.8	43	54.9	3	6	270	0.00	30.087 
14:05	79.4	79.4	79.6	41	53.6	2	5	270	0.00	30.087 
14:10	79.2	79.2	79.3	39	52.1	2	6	338	0.00	30.087 
14:15	79.4	79.4	79.5	40	52.9	3	5	292	0.00	30.086 
14:20	79.4	79.4	79.5	39	52.3	3	6	270	0.00	30.086 
14:25	79.2	79.2	79.3	38	51.4	3	6	315	0.00	30.086 
14:30	79.6	79.6	79.6	39	52.4	3	5	292	0.00	30.084 
14:35	79.2	79.2	79.3	39	52.1	3	7	292	0.00	30.084 
14:40	79.4	79.4	79.6	41	53.6	2	5	270	0.00	30.084 
14:45	79.9	79.9	79.8	39	52.7	1	4	292	0.00	30.080 
14:50	80.1	80.1	80.0	40	53.6	3	5	270	0.00	30.080 
14:55	80.1	80.1	80.0	40	53.6	2	4	270	0.00	30.080 
15:00	80.3	80.3	80.1	40	53.8	2	5	270	0.00	30.076 
15:05	80.7	80.7	80.3	39	53.4	2	4	315	0.00	30.076 
15:10	80.9	80.9	80.5	39	53.6	2	4	270	0.00	30.076 
15:15	80.9	80.9	80.5	39	53.6	2	5	315	0.00	30.070 
15:20	80.7	80.7	80.0	35	50.5	3	7	315	0.00	30.070 
15:25	80.5	80.5	80.2	39	53.2	2	6	338	0.00	30.070 
15:30	80.9	80.9	80.5	39	53.6	2	5	270	0.00	30.068 
15:35	80.9	80.9	80.5	39	53.6	2	5	270	0.00	30.068 
15:40	81.1	81.1	80.4	37	52.3	2	5	292	0.00	30.068 
15:45	81.2	81.2	80.7	39	53.9	2	4	292	0.00	30.067 
15:50	81.4	81.4	80.9	39	54.0	1	4	292	0.00	30.067 
15:55	81.6	81.6	80.9	38	53.5	1	4	292	0.00	30.067 
16:00	81.2	81.2	80.6	38	53.1	3	6	315	0.00	30.068 
16:05	80.9	80.9	80.5	39	53.6	2	5	270	0.00	30.068 
16:10	81.1	81.1	80.6	39	53.8	1	3	270	0.00	30.068 
16:15	81.2	81.2	80.7	39	53.9	1	4	270	0.00	30.067 
16:20	81.1	81.1	80.6	39	53.8	1	4	315	0.00	30.067 
16:25	81.1	81.1	80.6	39	53.8	2	5	292	0.00	30.067 
16:30	80.9	80.9	80.5	39	53.6	3	5	292	0.00	30.067 
16:35	80.5	80.5	80.3	40	53.9	1	5	270	0.00	30.067 
16:40	80.5	80.5	80.3	40	53.9	2	4	270	0.00	30.067 
16:45	80.5	80.5	80.2	39	53.2	2	5	270	0.00	30.066 
16:50	80.5	80.5	80.2	39	53.2	2	5	270	0.00	30.066 
16:55	80.1	80.1	80.0	40	53.6	2	3	270	0.00	30.066 
17:00	79.9	79.9	79.9	40	53.4	2	4	270	0.00	30.067 
17:05	79.8	79.8	79.6	38	51.9	1	3	270	0.00	30.067 
17:10	79.9	79.9	79.7	38	52.0	1	4	270	0.00	30.067 
17:15	80.1	80.1	79.7	36	50.7	2	5	270	0.00	30.064 
17:20	79.8	79.8	79.6	38	51.9	2	5	270	0.00	30.064 
17:25	79.6	79.6	79.6	39	52.4	1	3	270	0.00	30.064 
17:30	79.2	79.2	79.3	39	52.1	2	5	270	0.00	30.059 
17:35	79.2	79.2	79.4	40	52.8	2	4	292	0.00	30.059 
17:40	79.6	79.6	79.7	40	53.1	2	5	292	0.00	30.059 
17:45	80.1	80.1	79.9	39	52.9	2	4	292	0.00	30.055 
17:50	80.3	80.3	80.1	39	53.1	2	5	292	0.00	30.055 
17:55	80.1	80.1	80.0	40	53.6	1	3	292	0.00	30.055 
18:00	79.4	79.4	79.6	41	53.6	1	4	292	0.00	30.045 
18:05	79.0	79.0	79.5	43	54.6	1	4	292	0.00	30.045 
18:10	78.8	78.8	79.3	42	53.7	1	4	292	0.00	30.045 
18:15	79.0	79.0	79.5	43	54.6	1	3	292	0.00	30.043 
18:20	79.2	79.2	79.6	43	54.7	1	2	292	0.00	30.043 
18:25	79.4	79.4	79.7	42	54.3	2	4	292	0.00	30.043 
18:30	79.2	79.2	79.5	42	54.1	1	5	292	0.00	30.042 
18:35	78.8	78.8	79.4	43	54.4	1	5	315	0.00	30.042 
18:40	78.6	78.6	79.2	42	53.6	1	4	315	0.00	30.042 
18:45	78.5	78.5	79.2	43	54.1	1	5	292	0.00	30.049 
18:50	78.3	78.3	79.1	43	53.9	1	2	315	0.00	30.049 
18:55	77.9	77.9	78.9	44	54.2	1	3	315	0.00	30.049 
19:00	77.7	77.7	78.8	44	54.0	1	3	315	0.00	30.055 
19:05	77.7	77.7	78.8	44	54.0	1	3	315	0.00	30.055 
19:10	77.6	77.6	78.7	43	53.3	1	2	315	0.00	30.055 
19:15	77.4	77.4	78.6	44	53.8	1	3	315	0.00	30.054 
19:20	77.2	77.2	78.5	44	53.6	0	2	315	0.00	30.054 
19:25	77.2	77.2	78.5	43	52.9	1	3	315	0.00	30.054 
19:30	77.2	77.2	78.5	44	53.6	0	1	315	0.00	30.053 
19:35	77.2	77.2	78.5	45	54.2	1	2	315	0.00	30.053 
19:40	77.0	77.0	78.4	45	54.0	0	1	315	0.00	30.053 
19:45	76.8	76.8	78.4	46	54.4	0	1	315	0.00	30.056 
19:50	76.5	76.5	78.2	46	54.2	0	1	315	0.00	30.056 
19:55	76.3	76.3	78.2	47	54.6	0	1	315	0.00	30.056 
20:00	76.0	76.0	78.0	48	54.9	0	1	315	0.00	30.058 
20:05	75.8	75.8	78.0	49	55.3	0	1	315	0.00	30.058 
20:10	75.4	75.4	77.8	50	55.4	0	1	315	0.00	30.058 
20:15	75.1	75.1	77.7	50	55.2	0	0	---	0.00	30.056 
20:20	74.7	74.7	74.7	51	55.4	0	0	---	0.00	30.056 
20:25	74.4	74.4	74.4	52	55.6	0	0	---	0.00	30.056 
20:30	73.9	73.9	73.9	53	55.7	0	0	---	0.00	30.057 
20:35	73.5	73.5	73.5	53	55.3	0	0	---	0.00	30.057 
20:40	73.0	73.0	73.0	54	55.4	0	0	---	0.00	30.057 
20:45	72.5	72.5	72.5	55	55.4	0	0	---	0.00	30.063 
20:50	71.8	71.8	71.8	56	55.2	0	0	---	0.00	30.063 
20:55	71.1	71.1	71.1	58	55.6	0	0	---	0.00	30.063 
21:00	70.6	70.6	70.6	59	55.6	0	0	---	0.00	30.074 
21:05	70.1	70.1	70.1	60	55.6	0	0	---	0.00	30.074 
21:10	69.6	69.6	69.6	62	56.0	0	0	---	0.00	30.074 
21:15	69.1	69.1	69.1	63	56.0	0	0	---	0.00	30.076 
21:20	68.6	68.6	68.6	64	55.9	0	0	---	0.00	30.076 
21:25	68.3	68.3	68.3	65	56.1	0	0	---	0.00	30.076 
21:30	67.9	67.9	67.9	66	56.1	0	0	---	0.00	30.083 
21:35	67.6	67.6	67.6	67	56.2	0	0	---	0.00	30.083 
21:40	67.3	67.3	67.3	68	56.4	0	0	---	0.00	30.083 
21:45	66.9	66.9	66.9	68	56.0	0	0	---	0.00	30.087 
21:50	66.6	66.6	66.6	69	56.1	0	0	---	0.00	30.087 
21:55	66.3	66.3	66.3	70	56.2	0	0	---	0.00	30.087 
22:00	66.0	66.0	66.0	71	56.3	0	0	---	0.00	30.093 
22:05	65.8	65.8	65.8	71	56.1	0	0	---	0.00	30.093 
22:10	65.6	65.6	65.6	72	56.3	0	0	---	0.00	30.093 
22:15	65.5	65.5	65.5	73	56.6	0	0	---	0.00	30.089 
22:20	65.2	65.2	65.2	73	56.3	0	0	---	0.00	30.089 
22:25	65.0	65.0	65.0	74	56.5	0	0	---	0.00	30.089 
22:30	64.8	64.8	64.8	75	56.7	0	0	---	0.00	30.090 
22:35	64.8	64.8	64.8	75	56.7	0	0	---	0.00	30.090 
22:40	64.7	64.7	64.7	75	56.6	0	0	---	0.00	30.090 
22:45	64.5	64.5	64.5	75	56.4	0	0	---	0.00	30.087 
22:50	64.3	64.3	64.3	76	56.6	0	0	---	0.00	30.087 
22:55	64.2	64.2	64.2	76	56.5	0	0	---	0.00	30.087 
23:00	63.9	63.9	63.9	76	56.2	0	0	---	0.00	30.094 
23:05	63.7	63.7	63.7	77	56.3	0	0	---	0.00	30.094 
23:10	63.5	63.5	63.5	77	56.2	0	0	---	0.00	30.094 
23:15	63.4	63.4	63.4	77	56.1	0	0	---	0.00	30.090 
23:20	63.4	63.4	63.4	78	56.4	0	0	---	0.00	30.090 
23:25	63.2	63.2	63.2	78	56.2	0	0	---	0.00	30.090 
23:30	63.1	63.1	63.1	78	56.1	0	0	---	0.00	30.092 
23:35	62.9	62.9	62.9	79	56.3	0	0	---	0.00	30.092 
23:40	62.7	62.7	62.7	79	56.1	0	0	---	0.00	30.092 
23:45	62.6	62.6	62.6	80	56.3	0	0	---	0.00	30.090 
23:50	62.6	62.6	62.6	80	56.3	0	0	---	0.00	30.090 
23:55	62.4	62.4	62.4	80	56.1	0	0	---	0.00	30.090 

CoCoRaHS
IN-AL-39
A2 Web Hosting
Creative Commons License
GoDaddy
search engine by freefind advanced

loaded 2018-11-17 19:01:00 • last modified 2010-11-18 10:43:29
Privacy PolicyDisclaimer
• wx.awcolley.com is powered by PmWiki v.2002016 •
• all content (unless otherwise noted) © 2018 A W Colley